createdAt,value
2019-03-06T00:00:38.702Z,3.25
2019-03-06T00:03:07.265Z,3.30
2019-03-06T00:05:35.694Z,2.98
2019-03-06T00:08:04.093Z,3.77
2019-03-06T00:10:32.881Z,3.83
2019-03-06T00:13:01.319Z,3.22
2019-03-06T00:15:29.851Z,3.87
2019-03-06T00:17:58.364Z,3.40
2019-03-06T00:20:26.849Z,3.85
2019-03-06T00:23:14.597Z,4.20
2019-03-06T00:25:43.018Z,3.85
2019-03-06T00:28:12.084Z,3.47
2019-03-06T00:30:40.629Z,3.47
2019-03-06T00:33:29.003Z,4.85
2019-03-06T00:35:59.112Z,4.20
2019-03-06T00:38:27.512Z,4.17
2019-03-06T00:41:09.589Z,4.97
2019-03-06T00:43:37.999Z,4.58
2019-03-06T00:46:06.419Z,6.17
2019-03-06T00:48:34.822Z,5.83
2019-03-06T00:51:03.233Z,5.20
2019-03-06T00:53:31.632Z,5.17
2019-03-06T00:56:00.077Z,5.05
2019-03-06T00:58:28.497Z,4.75
2019-03-06T01:00:57.009Z,5.17
2019-03-06T01:03:25.445Z,4.62
2019-03-06T01:05:54.017Z,4.62
2019-03-06T01:08:22.792Z,5.25
2019-03-06T01:10:51.257Z,4.90
2019-03-06T01:13:20.065Z,5.33
2019-03-06T01:15:48.465Z,6.35
2019-03-06T01:18:16.886Z,6.83
2019-03-06T01:20:45.389Z,6.65
2019-03-06T01:23:13.808Z,6.60
2019-03-06T01:25:42.484Z,6.60
2019-03-06T01:28:10.910Z,4.90
2019-03-06T01:30:39.312Z,5.10
2019-03-06T01:33:12.221Z,5.87
2019-03-06T01:35:42.283Z,6.53
2019-03-06T01:38:30.377Z,6.10
2019-03-06T01:41:15.721Z,5.67
2019-03-06T01:43:51.718Z,5.92
2019-03-06T01:46:20.158Z,6.40
2019-03-06T01:48:48.638Z,5.95
2019-03-06T01:51:17.078Z,6.00
2019-03-06T01:53:45.650Z,6.28
2019-03-06T01:56:14.051Z,6.15
2019-03-06T01:58:42.461Z,5.80
2019-03-06T02:01:10.894Z,5.87
2019-03-06T02:03:39.398Z,5.78
2019-03-06T02:06:07.870Z,5.67
2019-03-06T02:08:36.284Z,6.33
2019-03-06T02:11:05.065Z,6.70
2019-03-06T02:13:33.475Z,6.50
2019-03-06T02:16:01.869Z,6.70
2019-03-06T02:18:30.285Z,7.40
2019-03-06T02:20:59.259Z,6.37
2019-03-06T02:23:27.670Z,6.97
2019-03-06T02:25:56.069Z,7.55
2019-03-06T02:28:24.492Z,6.65
2019-03-06T02:30:52.893Z,6.97
2019-03-06T02:33:21.794Z,6.60
2019-03-06T02:36:09.561Z,6.30
2019-03-06T02:38:37.960Z,6.42
2019-03-06T02:41:06.354Z,6.20
2019-03-06T02:43:35.070Z,8.10
2019-03-06T02:46:03.488Z,7.50
2019-03-06T02:48:31.898Z,6.97
2019-03-06T02:51:00.325Z,7.35
2019-03-06T02:53:28.772Z,7.30
2019-03-06T02:55:57.239Z,8.08
2019-03-06T02:58:27.303Z,6.90
2019-03-06T03:01:09.799Z,7.53
2019-03-06T03:03:56.191Z,5.75
2019-03-06T03:06:26.301Z,6.58
2019-03-06T03:08:54.740Z,6.45
2019-03-06T03:11:23.507Z,7.40
2019-03-06T03:13:51.915Z,8.30
2019-03-06T03:16:20.406Z,8.78
2019-03-06T03:18:48.824Z,7.75
2019-03-06T03:21:17.244Z,8.25
2019-03-06T03:23:46.012Z,7.22
2019-03-06T03:26:14.458Z,7.20
2019-03-06T03:28:42.911Z,7.15
2019-03-06T03:31:11.723Z,7.97
2019-03-06T03:33:40.189Z,7.97
2019-03-06T03:36:08.671Z,7.00
2019-03-06T03:38:37.064Z,6.30
2019-03-06T03:41:05.480Z,7.17
2019-03-06T03:43:33.871Z,6.20
2019-03-06T03:46:02.355Z,6.20
2019-03-06T03:48:30.766Z,6.35
2019-03-06T03:50:59.189Z,6.80
2019-03-06T03:53:27.667Z,6.30
2019-03-06T03:55:56.089Z,6.03
2019-03-06T03:58:24.621Z,5.28
2019-03-06T04:00:53.253Z,6.03
2019-03-06T04:03:22.035Z,5.40
2019-03-06T04:05:50.558Z,5.03
2019-03-06T04:08:19.114Z,5.15
2019-03-06T04:10:47.910Z,5.25
2019-03-06T04:13:16.333Z,6.08
2019-03-06T04:15:44.803Z,6.00
2019-03-06T04:18:13.255Z,5.90
2019-03-06T04:20:41.683Z,5.20
2019-03-06T04:23:10.114Z,5.42
2019-03-06T04:25:38.513Z,5.35
2019-03-06T04:28:06.913Z,4.95
2019-03-06T04:30:35.339Z,6.28
2019-03-06T04:33:04.018Z,5.72
2019-03-06T04:35:32.432Z,5.90
2019-03-06T04:38:01.045Z,7.17
2019-03-06T04:40:29.461Z,6.53
2019-03-06T04:42:57.858Z,6.72
2019-03-06T04:45:26.265Z,6.40
2019-03-06T04:47:55.030Z,5.90
2019-03-06T04:50:23.439Z,7.90
2019-03-06T04:52:51.842Z,7.15
2019-03-06T04:55:20.266Z,8.43
2019-03-06T04:57:48.670Z,6.85
2019-03-06T05:00:24.076Z,6.92
2019-03-06T05:02:52.820Z,6.45
2019-03-06T05:05:21.310Z,6.70
2019-03-06T05:07:49.731Z,6.83
2019-03-06T05:10:18.167Z,7.00
2019-03-06T05:12:46.676Z,8.73
2019-03-06T05:15:16.334Z,7.80
2019-03-06T05:17:52.420Z,8.10
2019-03-06T05:20:20.820Z,7.00
2019-03-06T05:22:49.246Z,7.03
2019-03-06T05:25:17.632Z,8.03
2019-03-06T05:27:46.319Z,7.65
2019-03-06T05:30:16.365Z,8.18
2019-03-06T05:32:47.865Z,9.03
2019-03-06T05:35:19.336Z,7.90
2019-03-06T05:37:53.350Z,7.95
2019-03-06T05:40:21.749Z,7.20
2019-03-06T05:42:50.158Z,8.15
2019-03-06T05:45:18.624Z,8.38
2019-03-06T05:47:47.393Z,6.62
2019-03-06T05:50:16.162Z,7.50
2019-03-06T05:52:44.596Z,7.50
2019-03-06T05:55:13.138Z,6.85
2019-03-06T05:57:41.557Z,7.85
2019-03-06T06:00:15.237Z,6.53
2019-03-06T06:02:43.644Z,8.53
2019-03-06T06:05:13.796Z,7.10
2019-03-06T06:07:42.873Z,7.10
2019-03-06T06:10:13.008Z,7.60
2019-03-06T06:12:41.437Z,7.15
2019-03-06T06:15:12.015Z,6.90
2019-03-06T06:17:40.505Z,7.22
2019-03-06T06:20:14.460Z,7.70
2019-03-06T06:22:53.339Z,10.13
2019-03-06T06:25:21.741Z,7.67
2019-03-06T06:27:50.158Z,6.33
2019-03-06T06:30:19.124Z,7.17
2019-03-06T06:32:47.593Z,7.40
2019-03-06T06:35:15.994Z,6.78
2019-03-06T06:37:44.410Z,6.72
2019-03-06T06:40:14.509Z,6.40
2019-03-06T06:42:42.989Z,5.10
2019-03-06T06:45:16.057Z,7.33
2019-03-06T06:48:09.880Z,6.37
2019-03-06T06:50:47.399Z,7.65
2019-03-06T06:53:37.435Z,6.58
2019-03-06T06:56:20.854Z,7.33
2019-03-06T06:59:15.310Z,8.05
2019-03-06T07:02:10.583Z,7.00
2019-03-06T07:04:59.948Z,7.30
2019-03-06T07:07:30.003Z,6.35
2019-03-06T07:10:00.274Z,7.00
2019-03-06T07:12:42.820Z,6.30
2019-03-06T07:15:19.014Z,6.20
2019-03-06T07:17:49.085Z,6.70
2019-03-06T07:20:34.219Z,6.65
2019-03-06T07:23:04.352Z,6.30
2019-03-06T07:25:43.318Z,5.95
2019-03-06T07:28:15.875Z,5.92
2019-03-06T07:30:45.974Z,4.92
2019-03-06T07:33:18.801Z,5.30
2019-03-06T07:35:56.826Z,4.53
2019-03-06T07:38:25.573Z,4.85
2019-03-06T07:41:11.802Z,3.35
2019-03-06T07:43:45.856Z,5.28
2019-03-06T07:46:25.053Z,4.25
2019-03-06T07:49:12.998Z,4.45
2019-03-06T07:51:59.153Z,5.33
2019-03-06T07:54:29.226Z,5.53
2019-03-06T07:57:02.262Z,4.15
2019-03-06T07:59:30.734Z,4.25
2019-03-06T08:02:05.081Z,4.45
2019-03-06T08:04:33.516Z,4.78
2019-03-06T08:07:14.702Z,5.20
2019-03-06T08:09:43.220Z,4.10
2019-03-06T08:12:25.557Z,4.40
2019-03-06T08:15:14.538Z,3.80
2019-03-06T08:17:45.054Z,4.78
2019-03-06T08:20:18.146Z,4.97
2019-03-06T08:23:04.509Z,4.37
2019-03-06T08:25:37.638Z,4.15
2019-03-06T08:28:06.149Z,4.03
2019-03-06T08:30:36.332Z,5.30
2019-03-06T08:33:05.177Z,4.00
2019-03-06T08:35:33.648Z,5.05
2019-03-06T08:38:02.517Z,4.15
2019-03-06T08:40:30.992Z,4.97
2019-03-06T08:42:59.513Z,4.60
2019-03-06T08:45:41.833Z,3.72
2019-03-06T08:48:28.324Z,4.87
2019-03-06T08:51:01.154Z,3.92
2019-03-06T08:53:33.675Z,4.25
2019-03-06T08:56:06.856Z,3.75
2019-03-06T08:58:39.641Z,3.70
2019-03-06T09:01:26.829Z,4.37
2019-03-06T09:04:14.761Z,4.12
2019-03-06T09:06:56.769Z,4.20
2019-03-06T09:09:30.242Z,3.33
2019-03-06T09:12:16.557Z,3.30
2019-03-06T09:14:55.647Z,3.50
2019-03-06T09:17:31.484Z,4.17
2019-03-06T09:20:04.621Z,2.92
2019-03-06T09:22:43.694Z,3.90
2019-03-06T09:25:26.268Z,3.08
2019-03-06T09:27:59.041Z,3.30
2019-03-06T09:30:38.222Z,3.07
2019-03-06T09:33:11.433Z,2.60
2019-03-06T09:35:47.043Z,3.40
2019-03-06T09:38:35.433Z,3.70
2019-03-06T09:41:22.146Z,3.10
2019-03-06T09:43:54.901Z,3.37
2019-03-06T09:46:27.674Z,4.77
2019-03-06T09:49:00.539Z,3.40
2019-03-06T09:51:36.570Z,4.10
2019-03-06T09:54:23.302Z,3.13
2019-03-06T09:57:09.606Z,3.43
2019-03-06T09:59:39.685Z,2.97
2019-03-06T10:02:12.810Z,3.20
2019-03-06T10:04:43.143Z,3.37
2019-03-06T10:07:22.310Z,3.03
2019-03-06T10:09:59.299Z,4.20
2019-03-06T10:12:47.736Z,3.53
2019-03-06T10:15:20.682Z,3.47
2019-03-06T10:17:56.765Z,3.00
2019-03-06T10:20:25.812Z,3.50
2019-03-06T10:22:54.897Z,3.80
2019-03-06T10:25:30.125Z,3.27
2019-03-06T10:27:54.703Z,3.90
2019-03-06T10:30:23.173Z,3.00
2019-03-06T10:32:52.006Z,2.37
2019-03-06T10:35:20.923Z,2.70
2019-03-06T10:37:50.447Z,2.53
2019-03-06T10:40:19.345Z,2.70
2019-03-06T10:42:47.841Z,2.50
2019-03-06T10:45:17.882Z,1.97
2019-03-06T10:47:47.012Z,2.13
2019-03-06T10:50:26.239Z,2.07
2019-03-06T10:52:48.621Z,2.07
2019-03-06T10:55:18.781Z,1.50
2019-03-06T10:57:47.415Z,1.70
2019-03-06T11:00:31.506Z,1.90
2019-03-06T11:03:00.297Z,2.20
2019-03-06T11:05:30.545Z,1.50
2019-03-06T11:08:00.197Z,1.50
2019-03-06T11:10:30.919Z,1.80
2019-03-06T11:13:00.485Z,2.10
2019-03-06T11:15:29.489Z,1.40
2019-03-06T11:17:58.001Z,1.47
2019-03-06T11:20:32.325Z,1.40
2019-03-06T11:23:03.485Z,1.80
2019-03-06T11:25:33.800Z,1.70
2019-03-06T11:28:02.384Z,1.97
2019-03-06T11:30:33.709Z,1.97
2019-03-06T11:33:02.747Z,1.60
2019-03-06T11:35:31.353Z,2.03
2019-03-06T11:38:00.234Z,1.67
2019-03-06T11:40:29.154Z,1.30
2019-03-06T11:42:57.554Z,1.70
2019-03-06T11:45:26.049Z,1.00
2019-03-06T11:47:54.536Z,1.97
2019-03-06T11:50:23.405Z,1.40
2019-03-06T11:52:52.229Z,1.80
2019-03-06T11:55:21.154Z,1.53
2019-03-06T11:57:49.640Z,1.30
2019-03-06T12:00:31.583Z,1.07
2019-03-06T12:03:00.142Z,1.20
2019-03-06T12:05:28.855Z,1.40
2019-03-06T12:07:57.310Z,1.53
2019-03-06T12:10:26.979Z,1.77
2019-03-06T12:12:55.844Z,1.83
2019-03-06T12:15:24.508Z,1.23
2019-03-06T12:17:52.991Z,1.30
2019-03-06T12:20:21.492Z,1.50
2019-03-06T12:22:50.259Z,0.90
2019-03-06T12:25:19.170Z,1.03
2019-03-06T12:27:47.587Z,1.57
2019-03-06T12:30:17.961Z,1.30
2019-03-06T12:32:46.514Z,1.80
2019-03-06T12:35:17.190Z,1.50
2019-03-06T12:37:47.152Z,1.70
2019-03-06T12:40:21.381Z,1.83
2019-03-06T12:42:51.525Z,1.60
2019-03-06T12:45:20.705Z,1.90
2019-03-06T12:47:55.421Z,2.00
2019-03-06T12:50:32.159Z,1.60
2019-03-06T12:53:01.047Z,1.40
2019-03-06T12:55:29.558Z,1.70
2019-03-06T12:57:59.597Z,2.30
2019-03-06T13:00:28.243Z,1.73
2019-03-06T13:02:56.846Z,1.60
2019-03-06T13:05:25.433Z,1.67
2019-03-06T13:07:53.868Z,1.80
2019-03-06T13:10:22.355Z,1.70
2019-03-06T13:12:51.193Z,1.77
2019-03-06T13:15:31.562Z,1.37
2019-03-06T13:18:03.368Z,1.03
2019-03-06T13:20:34.604Z,1.73
2019-03-06T13:23:04.334Z,1.53
2019-03-06T13:25:32.810Z,1.33
2019-03-06T13:28:04.534Z,1.50
2019-03-06T13:30:34.347Z,1.60
2019-03-06T13:33:07.718Z,1.63
2019-03-06T13:35:41.582Z,1.90
2019-03-06T13:38:11.674Z,1.90
2019-03-06T13:40:43.709Z,2.00
2019-03-06T13:43:12.477Z,1.73
2019-03-06T13:45:44.142Z,1.60
2019-03-06T13:48:14.224Z,1.87
2019-03-06T13:50:42.704Z,1.50
2019-03-06T13:53:19.906Z,1.17
2019-03-06T13:55:41.273Z,1.63
2019-03-06T13:58:09.854Z,1.53
2019-03-06T14:00:38.719Z,1.60
2019-03-06T14:03:07.476Z,2.10
2019-03-06T14:05:35.993Z,1.10
2019-03-06T14:08:05.676Z,1.33
2019-03-06T14:10:34.393Z,2.03
2019-03-06T14:13:02.817Z,1.70
2019-03-06T14:15:31.689Z,1.97
2019-03-06T14:18:00.194Z,1.27
2019-03-06T14:20:29.531Z,1.70
2019-03-06T14:22:58.310Z,1.73
2019-03-06T14:25:27.065Z,2.13
2019-03-06T14:27:55.646Z,2.00
2019-03-06T14:30:28.828Z,3.00
2019-03-06T14:32:57.371Z,2.10
2019-03-06T14:35:26.882Z,1.83
2019-03-06T14:37:55.385Z,2.07
2019-03-06T14:40:26.715Z,1.60
2019-03-06T14:42:55.632Z,2.20
2019-03-06T14:45:24.289Z,1.50
2019-03-06T14:47:53.167Z,2.10
2019-03-06T14:50:21.709Z,2.57
2019-03-06T14:52:50.218Z,2.53
2019-03-06T14:55:19.033Z,2.53
2019-03-06T14:57:47.629Z,2.30
2019-03-06T15:00:19.461Z,2.13
2019-03-06T15:02:48.045Z,2.30
2019-03-06T15:05:17.678Z,2.87
2019-03-06T15:07:46.149Z,2.03
2019-03-06T15:10:18.696Z,2.17
2019-03-06T15:12:47.345Z,2.27
2019-03-06T15:15:20.523Z,1.90
2019-03-06T15:17:49.090Z,2.13
2019-03-06T15:20:23.613Z,2.23
2019-03-06T15:22:53.767Z,2.83
2019-03-06T15:25:23.727Z,2.30
2019-03-06T15:27:52.214Z,2.60
2019-03-06T15:30:20.945Z,3.83
2019-03-06T15:32:49.789Z,2.80
2019-03-06T15:35:19.014Z,2.53
2019-03-06T15:37:48.511Z,2.73
2019-03-06T15:40:23.950Z,2.57
2019-03-06T15:42:52.428Z,2.50
2019-03-06T15:45:23.368Z,2.60
2019-03-06T15:47:52.354Z,2.63
2019-03-06T15:50:21.500Z,2.53
2019-03-06T15:52:50.602Z,2.63
2019-03-06T15:55:24.261Z,2.90
2019-03-06T15:57:52.765Z,3.93
2019-03-06T16:00:28.202Z,3.30
2019-03-06T16:02:57.320Z,2.70
2019-03-06T16:05:25.898Z,3.30
2019-03-06T16:07:56.978Z,3.20
2019-03-06T16:10:26.081Z,3.33
2019-03-06T16:12:54.626Z,3.77
2019-03-06T16:15:26.129Z,4.03
2019-03-06T16:17:55.105Z,2.60
2019-03-06T16:20:23.593Z,3.33
2019-03-06T16:22:52.206Z,3.43
2019-03-06T16:25:21.215Z,3.00
2019-03-06T16:27:49.621Z,4.00
2019-03-06T16:30:20.128Z,2.90
2019-03-06T16:32:48.526Z,3.00
2019-03-06T16:35:17.635Z,3.37
2019-03-06T16:37:46.111Z,3.20
2019-03-06T16:40:23.055Z,3.27
2019-03-06T16:42:52.137Z,3.77
2019-03-06T16:45:28.583Z,3.50
2019-03-06T16:47:57.049Z,3.33
2019-03-06T16:50:25.606Z,2.80
2019-03-06T16:52:54.495Z,3.80
2019-03-06T16:55:26.823Z,3.27
2019-03-06T16:57:55.713Z,3.43
2019-03-06T17:00:34.693Z,3.70
2019-03-06T17:03:10.086Z,3.40
2019-03-06T17:05:39.297Z,3.10
2019-03-06T17:08:08.230Z,4.03
2019-03-06T17:10:38.732Z,4.43
2019-03-06T17:13:07.713Z,3.40
2019-03-06T17:15:36.394Z,4.00
2019-03-06T17:18:05.014Z,4.10
2019-03-06T17:20:35.834Z,3.83
2019-03-06T17:23:06.217Z,3.40
2019-03-06T17:25:34.997Z,3.87
2019-03-06T17:28:03.759Z,3.50
2019-03-06T17:30:34.688Z,4.40
2019-03-06T17:33:14.647Z,3.90
2019-03-06T17:35:43.364Z,5.00
2019-03-06T17:38:13.376Z,4.50
2019-03-06T17:40:42.014Z,4.47
2019-03-06T17:43:10.693Z,4.20
2019-03-06T17:45:39.904Z,3.93
2019-03-06T17:48:09.448Z,4.30
2019-03-06T17:50:37.930Z,4.63
2019-03-06T17:53:06.831Z,4.10
2019-03-06T17:55:35.600Z,4.37
2019-03-06T17:58:04.705Z,4.70
2019-03-06T18:00:41.070Z,5.30
2019-03-06T18:03:11.293Z,4.77
2019-03-06T18:05:39.734Z,5.57
2019-03-06T18:08:08.305Z,4.83
2019-03-06T18:10:36.906Z,4.40
2019-03-06T18:13:05.680Z,5.20
2019-03-06T18:15:34.202Z,6.20
2019-03-06T18:18:03.035Z,5.47
2019-03-06T18:20:31.524Z,5.00
2019-03-06T18:22:59.964Z,5.73
2019-03-06T18:25:28.473Z,5.60
2019-03-06T18:27:56.906Z,5.30
2019-03-06T18:30:25.949Z,6.27
2019-03-06T18:32:54.453Z,6.20
2019-03-06T18:35:23.525Z,5.50
2019-03-06T18:37:52.538Z,6.30
2019-03-06T18:40:22.189Z,7.12
2019-03-06T18:42:50.660Z,7.47
2019-03-06T18:45:20.189Z,6.47
2019-03-06T18:47:48.759Z,7.33
2019-03-06T18:50:22.282Z,7.03
2019-03-06T18:52:51.415Z,7.60
2019-03-06T18:55:21.316Z,7.37
2019-03-06T18:57:49.977Z,7.10
2019-03-06T19:00:21.457Z,6.37
2019-03-06T19:02:49.972Z,8.50
2019-03-06T19:05:19.860Z,7.55
2019-03-06T19:07:49.404Z,7.00
2019-03-06T19:10:20.398Z,8.20
2019-03-06T19:12:48.977Z,7.37
2019-03-06T19:15:22.673Z,7.97
2019-03-06T19:17:51.187Z,7.58
2019-03-06T19:20:21.210Z,8.15
2019-03-06T19:22:51.259Z,8.43
2019-03-06T19:25:19.898Z,7.62
2019-03-06T19:27:48.875Z,7.63
2019-03-06T19:30:25.137Z,9.00
2019-03-06T19:32:53.764Z,7.65
2019-03-06T19:35:29.086Z,8.60
2019-03-06T19:37:57.544Z,6.67
2019-03-06T19:40:26.513Z,6.55
2019-03-06T19:42:55.005Z,6.85
2019-03-06T19:45:24.774Z,7.53
2019-03-06T19:47:53.333Z,6.62
2019-03-06T19:50:25.679Z,7.10
2019-03-06T19:52:56.734Z,7.22
2019-03-06T19:55:25.409Z,7.80
2019-03-06T19:58:01.859Z,8.43
2019-03-06T20:00:31.790Z,8.43
2019-03-06T20:03:00.945Z,7.25
2019-03-06T20:05:34.535Z,7.55
2019-03-06T20:08:02.786Z,7.35
2019-03-06T20:10:31.181Z,6.85
2019-03-06T20:12:59.683Z,6.75
2019-03-06T20:15:28.249Z,6.87
2019-03-06T20:17:56.748Z,7.67
2019-03-06T20:20:25.187Z,6.37
2019-03-06T20:22:53.671Z,6.20
2019-03-06T20:25:22.763Z,7.78
2019-03-06T20:27:53.236Z,7.08
2019-03-06T20:30:24.073Z,8.13
2019-03-06T20:32:52.925Z,7.45
2019-03-06T20:35:23.837Z,6.75
2019-03-06T20:37:52.909Z,8.53
2019-03-06T20:40:22.115Z,8.90
2019-03-06T20:42:51.057Z,8.90
2019-03-06T20:45:19.832Z,9.88
2019-03-06T20:47:48.365Z,10.72
2019-03-06T20:50:20.646Z,9.83
2019-03-06T20:52:50.335Z,9.35
2019-03-06T20:55:19.293Z,8.58
2019-03-06T20:57:48.205Z,10.93
2019-03-06T21:00:19.433Z,9.25
2019-03-06T21:02:47.994Z,9.28
2019-03-06T21:05:16.625Z,7.90
2019-03-06T21:07:45.703Z,7.50
2019-03-06T21:10:18.199Z,8.73
2019-03-06T21:12:46.786Z,8.98
2019-03-06T21:15:17.998Z,9.00
2019-03-06T21:17:47.721Z,7.80
2019-03-06T21:20:18.950Z,9.03
2019-03-06T21:22:48.177Z,9.23
2019-03-06T21:25:18.222Z,8.93
2019-03-06T21:27:46.642Z,9.20
2019-03-06T21:30:30.527Z,9.38
2019-03-06T21:32:59.115Z,8.40
2019-03-06T21:35:27.673Z,8.90
2019-03-06T21:37:56.098Z,8.05
2019-03-06T21:40:24.541Z,9.38
2019-03-06T21:42:53.033Z,9.18
2019-03-06T21:45:21.621Z,8.73
2019-03-06T21:47:50.412Z,9.28
2019-03-06T21:50:19.582Z,8.35
2019-03-06T21:52:48.102Z,8.43
2019-03-06T21:55:16.885Z,9.15
2019-03-06T21:57:45.678Z,7.97
2019-03-06T22:00:22.052Z,7.28
2019-03-06T22:02:50.607Z,7.28
2019-03-06T22:05:19.196Z,7.70
2019-03-06T22:07:50.147Z,8.08
2019-03-06T22:10:17.813Z,7.10
2019-03-06T22:12:46.273Z,5.90
2019-03-06T22:15:16.925Z,7.65
2019-03-06T22:17:45.409Z,7.03
2019-03-06T22:20:15.285Z,7.40
2019-03-06T22:22:43.766Z,7.05
2019-03-06T22:25:17.038Z,6.70
2019-03-06T22:27:45.544Z,6.45
2019-03-06T22:30:19.109Z,6.40
2019-03-06T22:32:47.656Z,6.95
2019-03-06T22:35:16.247Z,7.05
2019-03-06T22:37:44.744Z,6.70
2019-03-06T22:40:17.735Z,7.10
2019-03-06T22:42:46.233Z,6.85
2019-03-06T22:45:20.217Z,7.45
2019-03-06T22:47:48.766Z,7.45
2019-03-06T22:50:19.209Z,7.25
2019-03-06T22:52:47.700Z,7.08
2019-03-06T22:55:17.440Z,7.40
2019-03-06T22:57:45.866Z,6.50
2019-03-06T23:00:36.855Z,7.45
2019-03-06T23:03:05.646Z,6.45
2019-03-06T23:05:35.998Z,7.30
2019-03-06T23:08:04.578Z,6.17
2019-03-06T23:10:33.162Z,7.05
2019-03-06T23:13:01.654Z,5.85
2019-03-06T23:15:30.127Z,6.22
2019-03-06T23:17:58.839Z,7.30
2019-03-06T23:20:27.633Z,6.08
2019-03-06T23:22:56.141Z,6.45
2019-03-06T23:25:24.554Z,7.40
2019-03-06T23:27:53.041Z,6.78
2019-03-06T23:30:21.569Z,7.05
2019-03-06T23:32:50.278Z,6.83
2019-03-06T23:35:18.694Z,6.78
2019-03-06T23:37:47.121Z,6.92
2019-03-06T23:40:15.529Z,6.47
2019-03-06T23:42:43.953Z,7.47
2019-03-06T23:45:13.529Z,6.60
2019-03-06T23:47:42.321Z,7.70
2019-03-06T23:50:11.989Z,7.78
2019-03-06T23:52:58.460Z,8.28
2019-03-06T23:55:28.650Z,8.08
2019-03-06T23:57:57.507Z,6.75
